sensor_id;sensor_type;location;lat;lon;timestamp;temperature;humidity
56322;DHT22;42227;6.376;-10.782;2022-07-01T00:00:34;26.50;99.90
56322;DHT22;42227;6.376;-10.782;2022-07-01T00:03:02;26.60;99.90
56322;DHT22;42227;6.376;-10.782;2022-07-01T00:05:31;27.20;99.90
56322;DHT22;42227;6.376;-10.782;2022-07-01T00:07:59;27.50;99.90
56322;DHT22;42227;6.376;-10.782;2022-07-01T00:10:27;27.30;99.90
56322;DHT22;42227;6.376;-10.782;2022-07-01T00:12:55;27.00;99.90
56322;DHT22;42227;6.376;-10.782;2022-07-01T00:15:24;26.80;99.90
56322;DHT22;42227;6.376;-10.782;2022-07-01T00:17:52;26.70;99.90
56322;DHT22;42227;6.376;-10.782;2022-07-01T00:20:20;26.60;99.90
56322;DHT22;42227;6.376;-10.782;2022-07-01T00:22:49;26.60;99.90
56322;DHT22;42227;6.376;-10.782;2022-07-01T00:25:17;26.60;99.90
56322;DHT22;42227;6.376;-10.782;2022-07-01T00:27:45;26.60;99.90
56322;DHT22;42227;6.376;-10.782;2022-07-01T00:30:14;26.70;99.90
56322;DHT22;42227;6.376;-10.782;2022-07-01T00:32:42;27.10;99.90
56322;DHT22;42227;6.376;-10.782;2022-07-01T00:35:10;27.30;99.90
56322;DHT22;42227;6.376;-10.782;2022-07-01T00:37:39;27.20;99.90
56322;DHT22;42227;6.376;-10.782;2022-07-01T00:40:07;26.90;99.90
56322;DHT22;42227;6.376;-10.782;2022-07-01T00:42:39;26.70;99.90
56322;DHT22;42227;6.376;-10.782;2022-07-01T00:45:09;26.70;99.90
56322;DHT22;42227;6.376;-10.782;2022-07-01T00:47:40;26.60;99.90
56322;DHT22;42227;6.376;-10.782;2022-07-01T00:50:12;26.60;99.90
56322;DHT22;42227;6.376;-10.782;2022-07-01T00:52:43;26.60;99.90
56322;DHT22;42227;6.376;-10.782;2022-07-01T00:55:13;26.50;99.90
56322;DHT22;42227;6.376;-10.782;2022-07-01T00:57:43;26.50;99.90
56322;DHT22;42227;6.376;-10.782;2022-07-01T01:00:14;26.70;99.90
56322;DHT22;42227;6.376;-10.782;2022-07-01T01:02:43;27.30;99.90
56322;DHT22;42227;6.376;-10.782;2022-07-01T01:05:11;27.50;99.90
56322;DHT22;42227;6.376;-10.782;2022-07-01T01:07:40;27.20;99.90
56322;DHT22;42227;6.376;-10.782;2022-07-01T01:10:09;26.90;99.90
56322;DHT22;42227;6.376;-10.782;2022-07-01T01:12:38;26.80;99.90
56322;DHT22;42227;6.376;-10.782;2022-07-01T01:15:07;26.70;99.90
56322;DHT22;42227;6.376;-10.782;2022-07-01T01:17:35;26.60;99.90
56322;DHT22;42227;6.376;-10.782;2022-07-01T01:20:04;26.60;99.90
56322;DHT22;42227;6.376;-10.782;2022-07-01T01:22:33;26.50;99.90
56322;DHT22;42227;6.376;-10.782;2022-07-01T01:25:01;26.50;99.90
56322;DHT22;42227;6.376;-10.782;2022-07-01T01:27:29;26.60;99.90
56322;DHT22;42227;6.376;-10.782;2022-07-01T01:29:57;27.10;99.90
56322;DHT22;42227;6.376;-10.782;2022-07-01T01:32:26;27.30;99.90
56322;DHT22;42227;6.376;-10.782;2022-07-01T01:34:54;27.00;99.90
56322;DHT22;42227;6.376;-10.782;2022-07-01T01:37:22;26.70;99.90
56322;DHT22;42227;6.376;-10.782;2022-07-01T01:39:50;26.60;99.90
56322;DHT22;42227;6.376;-10.782;2022-07-01T01:42:19;26.50;99.90
56322;DHT22;42227;6.376;-10.782;2022-07-01T01:44:47;26.40;99.90
56322;DHT22;42227;6.376;-10.782;2022-07-01T01:47:15;26.30;99.90
56322;DHT22;42227;6.376;-10.782;2022-07-01T01:49:44;26.30;99.90
56322;DHT22;42227;6.376;-10.782;2022-07-01T01:52:12;26.30;99.90
56322;DHT22;42227;6.376;-10.782;2022-07-01T01:54:40;26.30;99.90
56322;DHT22;42227;6.376;-10.782;2022-07-01T01:57:08;26.60;99.90
56322;DHT22;42227;6.376;-10.782;2022-07-01T01:59:37;26.90;99.90
56322;DHT22;42227;6.376;-10.782;2022-07-01T02:02:05;27.00;99.90
56322;DHT22;42227;6.376;-10.782;2022-07-01T02:04:33;26.70;99.90
56322;DHT22;42227;6.376;-10.782;2022-07-01T02:07:02;26.50;99.90
56322;DHT22;42227;6.376;-10.782;2022-07-01T02:09:31;26.40;99.90
56322;DHT22;42227;6.376;-10.782;2022-07-01T02:11:59;26.30;99.90
56322;DHT22;42227;6.376;-10.782;2022-07-01T02:14:27;26.30;99.90
56322;DHT22;42227;6.376;-10.782;2022-07-01T02:16:55;26.30;99.90
56322;DHT22;42227;6.376;-10.782;2022-07-01T02:19:24;26.20;99.90
56322;DHT22;42227;6.376;-10.782;2022-07-01T02:21:52;26.20;99.90
56322;DHT22;42227;6.376;-10.782;2022-07-01T02:24:20;26.20;99.90
56322;DHT22;42227;6.376;-10.782;2022-07-01T02:26:48;26.60;99.90
56322;DHT22;42227;6.376;-10.782;2022-07-01T02:29:16;27.00;99.90
56322;DHT22;42227;6.376;-10.782;2022-07-01T02:31:45;26.90;99.90
56322;DHT22;42227;6.376;-10.782;2022-07-01T02:34:13;26.60;99.90
56322;DHT22;42227;6.376;-10.782;2022-07-01T02:36:41;26.40;99.90
56322;DHT22;42227;6.376;-10.782;2022-07-01T02:39:10;26.30;99.90
56322;DHT22;42227;6.376;-10.782;2022-07-01T02:41:38;26.30;99.90
56322;DHT22;42227;6.376;-10.782;2022-07-01T02:44:06;26.30;99.90
56322;DHT22;42227;6.376;-10.782;2022-07-01T02:46:34;26.30;99.90
56322;DHT22;42227;6.376;-10.782;2022-07-01T02:49:03;26.30;99.90
56322;DHT22;42227;6.376;-10.782;2022-07-01T02:51:31;26.20;99.90
56322;DHT22;42227;6.376;-10.782;2022-07-01T02:53:59;26.30;99.90
56322;DHT22;42227;6.376;-10.782;2022-07-01T02:56:27;26.80;99.90
56322;DHT22;42227;6.376;-10.782;2022-07-01T02:58:55;27.10;99.90
56322;DHT22;42227;6.376;-10.782;2022-07-01T03:01:24;27.10;99.90
56322;DHT22;42227;6.376;-10.782;2022-07-01T03:03:53;26.80;99.90
56322;DHT22;42227;6.376;-10.782;2022-07-01T03:06:21;26.60;99.90
56322;DHT22;42227;6.376;-10.782;2022-07-01T03:08:49;26.50;99.90
56322;DHT22;42227;6.376;-10.782;2022-07-01T03:11:18;26.30;99.90
56322;DHT22;42227;6.376;-10.782;2022-07-01T03:13:46;26.30;99.90
56322;DHT22;42227;6.376;-10.782;2022-07-01T03:16:14;26.30;99.90
56322;DHT22;42227;6.376;-10.782;2022-07-01T03:18:42;26.20;99.90
56322;DHT22;42227;6.376;-10.782;2022-07-01T03:21:11;26.20;99.90
56322;DHT22;42227;6.376;-10.782;2022-07-01T03:23:39;26.30;99.90
56322;DHT22;42227;6.376;-10.782;2022-07-01T03:26:07;26.70;99.90
56322;DHT22;42227;6.376;-10.782;2022-07-01T03:28:35;27.00;99.90
56322;DHT22;42227;6.376;-10.782;2022-07-01T03:31:03;26.80;99.90
56322;DHT22;42227;6.376;-10.782;2022-07-01T03:33:32;26.60;99.90
56322;DHT22;42227;6.376;-10.782;2022-07-01T03:36:00;26.50;99.90
56322;DHT22;42227;6.376;-10.782;2022-07-01T03:38:28;26.50;99.90
56322;DHT22;42227;6.376;-10.782;2022-07-01T03:40:57;26.40;99.90
56322;DHT22;42227;6.376;-10.782;2022-07-01T03:43:25;26.40;99.90
56322;DHT22;42227;6.376;-10.782;2022-07-01T03:45:53;26.30;99.90
56322;DHT22;42227;6.376;-10.782;2022-07-01T03:48:21;26.20;99.90
56322;DHT22;42227;6.376;-10.782;2022-07-01T03:50:50;26.20;99.90
56322;DHT22;42227;6.376;-10.782;2022-07-01T03:53:18;26.30;99.90
56322;DHT22;42227;6.376;-10.782;2022-07-01T03:55:46;26.50;99.90
56322;DHT22;42227;6.376;-10.782;2022-07-01T03:58:14;26.70;99.90
56322;DHT22;42227;6.376;-10.782;2022-07-01T04:00:43;26.40;99.90
56322;DHT22;42227;6.376;-10.782;2022-07-01T04:03:11;26.20;99.90
56322;DHT22;42227;6.376;-10.782;2022-07-01T04:05:40;26.00;99.90
56322;DHT22;42227;6.376;-10.782;2022-07-01T04:08:09;25.90;99.90
56322;DHT22;42227;6.376;-10.782;2022-07-01T04:10:38;25.80;99.90
56322;DHT22;42227;6.376;-10.782;2022-07-01T04:13:07;25.70;99.90
56322;DHT22;42227;6.376;-10.782;2022-07-01T04:15:55;25.70;99.90
56322;DHT22;42227;6.376;-10.782;2022-07-01T04:18:23;25.60;99.90
56322;DHT22;42227;6.376;-10.782;2022-07-01T04:20:52;25.60;99.90
56322;DHT22;42227;6.376;-10.782;2022-07-01T04:23:20;25.80;99.90
56322;DHT22;42227;6.376;-10.782;2022-07-01T04:25:48;26.00;99.90
56322;DHT22;42227;6.376;-10.782;2022-07-01T04:28:16;26.00;99.90
56322;DHT22;42227;6.376;-10.782;2022-07-01T04:30:44;25.70;99.90
56322;DHT22;42227;6.376;-10.782;2022-07-01T04:33:13;25.50;99.90
56322;DHT22;42227;6.376;-10.782;2022-07-01T04:35:41;25.40;99.90
56322;DHT22;42227;6.376;-10.782;2022-07-01T04:39:52;25.50;99.90
56322;DHT22;42227;6.376;-10.782;2022-07-01T04:42:20;25.30;99.90
56322;DHT22;42227;6.376;-10.782;2022-07-01T04:44:49;25.20;99.90
56322;DHT22;42227;6.376;-10.782;2022-07-01T04:47:18;25.20;99.90
56322;DHT22;42227;6.376;-10.782;2022-07-01T04:49:46;25.20;99.90
56322;DHT22;42227;6.376;-10.782;2022-07-01T04:52:14;25.30;99.90
56322;DHT22;42227;6.376;-10.782;2022-07-01T04:54:42;25.60;99.90
56322;DHT22;42227;6.376;-10.782;2022-07-01T04:57:11;25.90;99.90
56322;DHT22;42227;6.376;-10.782;2022-07-01T04:59:39;25.80;99.90
56322;DHT22;42227;6.376;-10.782;2022-07-01T05:02:07;25.60;99.90
56322;DHT22;42227;6.376;-10.782;2022-07-01T05:04:39;25.50;99.90
56322;DHT22;42227;6.376;-10.782;2022-07-01T05:07:08;25.50;99.90
56322;DHT22;42227;6.376;-10.782;2022-07-01T05:09:36;25.40;99.90
56322;DHT22;42227;6.376;-10.782;2022-07-01T05:12:04;25.30;99.90
56322;DHT22;42227;6.376;-10.782;2022-07-01T05:14:33;25.30;99.90
56322;DHT22;42227;6.376;-10.782;2022-07-01T05:17:01;25.20;99.90
56322;DHT22;42227;6.376;-10.782;2022-07-01T05:19:29;25.30;99.90
56322;DHT22;42227;6.376;-10.782;2022-07-01T05:21:58;25.50;99.90
56322;DHT22;42227;6.376;-10.782;2022-07-01T05:24:29;25.80;99.90
56322;DHT22;42227;6.376;-10.782;2022-07-01T05:26:58;25.80;99.90
56322;DHT22;42227;6.376;-10.782;2022-07-01T05:29:26;25.60;99.90
56322;DHT22;42227;6.376;-10.782;2022-07-01T05:31:55;25.50;99.90
56322;DHT22;42227;6.376;-10.782;2022-07-01T05:34:23;25.40;99.90
56322;DHT22;42227;6.376;-10.782;2022-07-01T05:36:52;25.30;99.90
56322;DHT22;42227;6.376;-10.782;2022-07-01T05:39:20;25.40;99.90
56322;DHT22;42227;6.376;-10.782;2022-07-01T05:41:49;25.50;99.90
56322;DHT22;42227;6.376;-10.782;2022-07-01T05:44:17;25.40;99.90
56322;DHT22;42227;6.376;-10.782;2022-07-01T05:46:45;25.40;99.90
56322;DHT22;42227;6.376;-10.782;2022-07-01T05:49:13;25.40;99.90
56322;DHT22;42227;6.376;-10.782;2022-07-01T05:51:45;25.50;99.90
56322;DHT22;42227;6.376;-10.782;2022-07-01T05:54:13;25.50;99.90
56322;DHT22;42227;6.376;-10.782;2022-07-01T06:00:40;25.50;99.90
56322;DHT22;42227;6.376;-10.782;2022-07-01T06:03:10;25.40;99.90
56322;DHT22;42227;6.376;-10.782;2022-07-01T06:05:39;25.40;99.90
56322;DHT22;42227;6.376;-10.782;2022-07-01T06:08:07;25.40;99.90
56322;DHT22;42227;6.376;-10.782;2022-07-01T06:10:36;25.40;99.90
56322;DHT22;42227;6.376;-10.782;2022-07-01T06:13:05;25.30;99.90
56322;DHT22;42227;6.376;-10.782;2022-07-01T06:15:33;25.30;99.90
56322;DHT22;42227;6.376;-10.782;2022-07-01T06:18:02;25.30;99.90
56322;DHT22;42227;6.376;-10.782;2022-07-01T06:20:30;25.50;99.90
56322;DHT22;42227;6.376;-10.782;2022-07-01T06:22:58;25.70;99.90
56322;DHT22;42227;6.376;-10.782;2022-07-01T06:25:27;25.70;99.90
56322;DHT22;42227;6.376;-10.782;2022-07-01T06:27:55;25.40;99.90
56322;DHT22;42227;6.376;-10.782;2022-07-01T06:30:23;25.30;99.90
56322;DHT22;42227;6.376;-10.782;2022-07-01T06:32:51;25.30;99.90
56322;DHT22;42227;6.376;-10.782;2022-07-01T06:35:20;25.30;99.90
56322;DHT22;42227;6.376;-10.782;2022-07-01T06:37:48;25.20;99.90
56322;DHT22;42227;6.376;-10.782;2022-07-01T06:40:23;25.10;99.90
56322;DHT22;42227;6.376;-10.782;2022-07-01T06:42:51;25.10;99.90
56322;DHT22;42227;6.376;-10.782;2022-07-01T06:45:19;25.10;99.90
56322;DHT22;42227;6.376;-10.782;2022-07-01T06:47:48;25.20;99.90
56322;DHT22;42227;6.376;-10.782;2022-07-01T06:50:16;25.30;99.90
56322;DHT22;42227;6.376;-10.782;2022-07-01T06:52:44;25.30;99.90
56322;DHT22;42227;6.376;-10.782;2022-07-01T06:55:13;25.50;99.90
56322;DHT22;42227;6.376;-10.782;2022-07-01T06:57:41;25.40;99.90
56322;DHT22;42227;6.376;-10.782;2022-07-01T07:00:10;25.30;99.90
56322;DHT22;42227;6.376;-10.782;2022-07-01T07:02:38;25.30;99.90
56322;DHT22;42227;6.376;-10.782;2022-07-01T07:05:10;25.20;99.90
56322;DHT22;42227;6.376;-10.782;2022-07-01T07:07:39;25.10;99.90
56322;DHT22;42227;6.376;-10.782;2022-07-01T07:10:08;25.10;99.90
56322;DHT22;42227;6.376;-10.782;2022-07-01T07:12:36;25.10;99.90
56322;DHT22;42227;6.376;-10.782;2022-07-01T07:15:05;25.00;99.90
56322;DHT22;42227;6.376;-10.782;2022-07-01T07:17:33;25.00;99.90
56322;DHT22;42227;6.376;-10.782;2022-07-01T07:20:01;25.00;99.90
56322;DHT22;42227;6.376;-10.782;2022-07-01T07:22:30;25.40;99.90
56322;DHT22;42227;6.376;-10.782;2022-07-01T07:24:58;25.60;99.90
56322;DHT22;42227;6.376;-10.782;2022-07-01T07:27:26;25.50;99.90
56322;DHT22;42227;6.376;-10.782;2022-07-01T07:30:01;25.40;99.90
56322;DHT22;42227;6.376;-10.782;2022-07-01T07:32:29;25.50;99.90
56322;DHT22;42227;6.376;-10.782;2022-07-01T07:34:57;25.50;99.90
56322;DHT22;42227;6.376;-10.782;2022-07-01T07:37:25;25.60;99.90
56322;DHT22;42227;6.376;-10.782;2022-07-01T07:39:53;25.70;99.90
56322;DHT22;42227;6.376;-10.782;2022-07-01T07:42:22;25.90;99.90
56322;DHT22;42227;6.376;-10.782;2022-07-01T07:44:50;25.90;99.90
56322;DHT22;42227;6.376;-10.782;2022-07-01T07:47:18;25.90;99.90
56322;DHT22;42227;6.376;-10.782;2022-07-01T07:49:47;26.10;99.90
56322;DHT22;42227;6.376;-10.782;2022-07-01T07:52:15;26.20;99.90
56322;DHT22;42227;6.376;-10.782;2022-07-01T07:54:43;26.20;99.90
56322;DHT22;42227;6.376;-10.782;2022-07-01T07:57:12;26.10;99.90
56322;DHT22;42227;6.376;-10.782;2022-07-01T07:59:40;26.00;99.90
56322;DHT22;42227;6.376;-10.782;2022-07-01T08:02:08;25.90;99.90
56322;DHT22;42227;6.376;-10.782;2022-07-01T08:04:37;25.90;99.90
56322;DHT22;42227;6.376;-10.782;2022-07-01T08:07:05;25.90;99.90
56322;DHT22;42227;6.376;-10.782;2022-07-01T08:11:51;25.70;99.90
56322;DHT22;42227;6.376;-10.782;2022-07-01T08:14:20;25.70;99.90
56322;DHT22;42227;6.376;-10.782;2022-07-01T08:16:50;25.90;99.90
56322;DHT22;42227;6.376;-10.782;2022-07-01T08:19:18;26.10;99.90
56322;DHT22;42227;6.376;-10.782;2022-07-01T08:21:46;26.10;99.90
56322;DHT22;42227;6.376;-10.782;2022-07-01T08:24:15;26.10;99.90
56322;DHT22;42227;6.376;-10.782;2022-07-01T08:26:43;26.00;99.90
56322;DHT22;42227;6.376;-10.782;2022-07-01T08:29:11;25.90;99.90
56322;DHT22;42227;6.376;-10.782;2022-07-01T08:31:40;25.90;99.90
56322;DHT22;42227;6.376;-10.782;2022-07-01T08:34:08;25.90;99.90
56322;DHT22;42227;6.376;-10.782;2022-07-01T08:36:36;25.90;99.90
56322;DHT22;42227;6.376;-10.782;2022-07-01T08:39:05;25.80;99.90
56322;DHT22;42227;6.376;-10.782;2022-07-01T08:41:33;25.70;99.90
56322;DHT22;42227;6.376;-10.782;2022-07-01T08:44:01;25.70;99.90
56322;DHT22;42227;6.376;-10.782;2022-07-01T08:46:33;25.70;99.90
56322;DHT22;42227;6.376;-10.782;2022-07-01T08:49:03;25.70;99.90
56322;DHT22;42227;6.376;-10.782;2022-07-01T08:51:31;25.70;99.90
56322;DHT22;42227;6.376;-10.782;2022-07-01T08:54:00;25.40;99.90
56322;DHT22;42227;6.376;-10.782;2022-07-01T08:56:28;25.10;99.90
56322;DHT22;42227;6.376;-10.782;2022-07-01T08:58:56;25.00;99.90
56322;DHT22;42227;6.376;-10.782;2022-07-01T09:01:26;25.00;99.90
56322;DHT22;42227;6.376;-10.782;2022-07-01T09:03:56;24.90;99.90
56322;DHT22;42227;6.376;-10.782;2022-07-01T09:06:40;24.80;99.90
56322;DHT22;42227;6.376;-10.782;2022-07-01T09:09:17;24.60;99.90
56322;DHT22;42227;6.376;-10.782;2022-07-01T09:11:49;24.60;99.90
56322;DHT22;42227;6.376;-10.782;2022-07-01T09:14:17;24.40;99.90
56322;DHT22;42227;6.376;-10.782;2022-07-01T09:16:54;24.20;99.90
56322;DHT22;42227;6.376;-10.782;2022-07-01T09:19:23;24.00;99.90
56322;DHT22;42227;6.376;-10.782;2022-07-01T09:21:56;23.80;99.90
56322;DHT22;42227;6.376;-10.782;2022-07-01T09:24:38;23.80;99.90
56322;DHT22;42227;6.376;-10.782;2022-07-01T09:27:09;23.90;99.90
56322;DHT22;42227;6.376;-10.782;2022-07-01T09:29:41;23.90;99.90
56322;DHT22;42227;6.376;-10.782;2022-07-01T09:32:11;24.00;99.90
56322;DHT22;42227;6.376;-10.782;2022-07-01T09:34:45;24.10;99.90
56322;DHT22;42227;6.376;-10.782;2022-07-01T09:37:16;23.90;99.90
56322;DHT22;42227;6.376;-10.782;2022-07-01T09:39:51;24.00;99.90
56322;DHT22;42227;6.376;-10.782;2022-07-01T09:42:22;24.10;99.90
56322;DHT22;42227;6.376;-10.782;2022-07-01T09:45:05;24.20;99.90
56322;DHT22;42227;6.376;-10.782;2022-07-01T09:47:35;24.40;99.90
56322;DHT22;42227;6.376;-10.782;2022-07-01T09:50:05;24.60;99.90
56322;DHT22;42227;6.376;-10.782;2022-07-01T09:52:34;25.00;99.90
56322;DHT22;42227;6.376;-10.782;2022-07-01T09:55:06;25.60;99.90
56322;DHT22;42227;6.376;-10.782;2022-07-01T09:57:35;26.10;99.90
56322;DHT22;42227;6.376;-10.782;2022-07-01T10:00:04;26.10;99.90
56322;DHT22;42227;6.376;-10.782;2022-07-01T10:02:34;26.30;99.90
56322;DHT22;42227;6.376;-10.782;2022-07-01T10:05:07;26.30;99.90
56322;DHT22;42227;6.376;-10.782;2022-07-01T10:07:59;26.10;99.90
56322;DHT22;42227;6.376;-10.782;2022-07-01T10:13:33;26.90;99.90
56322;DHT22;42227;6.376;-10.782;2022-07-01T10:16:03;27.10;99.90
56322;DHT22;42227;6.376;-10.782;2022-07-01T10:18:32;27.30;99.90
56322;DHT22;42227;6.376;-10.782;2022-07-01T10:21:00;27.50;99.90
56322;DHT22;42227;6.376;-10.782;2022-07-01T10:23:40;28.30;99.90
56322;DHT22;42227;6.376;-10.782;2022-07-01T10:26:10;29.30;99.90
56322;DHT22;42227;6.376;-10.782;2022-07-01T10:31:08;29.10;99.90
56322;DHT22;42227;6.376;-10.782;2022-07-01T10:33:47;29.20;99.90
56322;DHT22;42227;6.376;-10.782;2022-07-01T10:36:31;29.10;99.90
56322;DHT22;42227;6.376;-10.782;2022-07-01T10:41:33;28.80;99.90
56322;DHT22;42227;6.376;-10.782;2022-07-01T10:44:07;29.20;99.90
56322;DHT22;42227;6.376;-10.782;2022-07-01T10:47:04;28.80;99.90
56322;DHT22;42227;6.376;-10.782;2022-07-01T10:52:11;27.90;99.90
56322;DHT22;42227;6.376;-10.782;2022-07-01T10:59:52;28.10;99.90
56322;DHT22;42227;6.376;-10.782;2022-07-01T11:05:00;27.70;99.90
56322;DHT22;42227;6.376;-10.782;2022-07-01T11:07:31;27.50;99.90
56322;DHT22;42227;6.376;-10.782;2022-07-01T11:10:02;27.40;99.90
56322;DHT22;42227;6.376;-10.782;2022-07-01T11:12:31;27.30;99.90
56322;DHT22;42227;6.376;-10.782;2022-07-01T11:15:00;27.20;99.90
56322;DHT22;42227;6.376;-10.782;2022-07-01T11:17:29;27.20;99.90
56322;DHT22;42227;6.376;-10.782;2022-07-01T11:19:58;27.00;99.90
56322;DHT22;42227;6.376;-10.782;2022-07-01T11:22:29;26.90;99.90
56322;DHT22;42227;6.376;-10.782;2022-07-01T11:25:00;26.90;99.90
56322;DHT22;42227;6.376;-10.782;2022-07-01T11:27:30;27.40;99.90
56322;DHT22;42227;6.376;-10.782;2022-07-01T11:30:07;27.80;99.90
56322;DHT22;42227;6.376;-10.782;2022-07-01T11:32:41;27.50;99.90
56322;DHT22;42227;6.376;-10.782;2022-07-01T11:35:24;27.50;99.90
56322;DHT22;42227;6.376;-10.782;2022-07-01T11:38:04;27.30;99.90
56322;DHT22;42227;6.376;-10.782;2022-07-01T11:40:33;27.40;99.90
56322;DHT22;42227;6.376;-10.782;2022-07-01T11:43:01;27.40;99.90
56322;DHT22;42227;6.376;-10.782;2022-07-01T11:45:29;27.40;99.90
56322;DHT22;42227;6.376;-10.782;2022-07-01T11:47:58;27.30;99.90
56322;DHT22;42227;6.376;-10.782;2022-07-01T11:50:26;27.50;99.90
56322;DHT22;42227;6.376;-10.782;2022-07-01T11:52:55;27.60;99.90
56322;DHT22;42227;6.376;-10.782;2022-07-01T11:55:23;27.50;99.90
56322;DHT22;42227;6.376;-10.782;2022-07-01T11:58:07;27.90;99.90
56322;DHT22;42227;6.376;-10.782;2022-07-01T12:00:35;28.40;99.90
56322;DHT22;42227;6.376;-10.782;2022-07-01T12:03:04;28.40;99.90
56322;DHT22;42227;6.376;-10.782;2022-07-01T12:05:32;28.40;99.90
56322;DHT22;42227;6.376;-10.782;2022-07-01T12:08:05;28.70;99.90
56322;DHT22;42227;6.376;-10.782;2022-07-01T12:10:34;28.50;99.90
56322;DHT22;42227;6.376;-10.782;2022-07-01T12:13:21;28.30;99.90
56322;DHT22;42227;6.376;-10.782;2022-07-01T12:15:50;28.60;99.90
56322;DHT22;42227;6.376;-10.782;2022-07-01T12:18:18;28.90;99.90
56322;DHT22;42227;6.376;-10.782;2022-07-01T12:20:53;29.20;99.90
56322;DHT22;42227;6.376;-10.782;2022-07-01T12:23:21;29.30;99.90
56322;DHT22;42227;6.376;-10.782;2022-07-01T12:25:51;29.40;99.90
56322;DHT22;42227;6.376;-10.782;2022-07-01T12:28:38;29.80;99.90
56322;DHT22;42227;6.376;-10.782;2022-07-01T12:31:09;29.90;99.90
56322;DHT22;42227;6.376;-10.782;2022-07-01T12:33:40;30.00;99.90
56322;DHT22;42227;6.376;-10.782;2022-07-01T12:36:08;29.80;99.90
56322;DHT22;42227;6.376;-10.782;2022-07-01T12:38:37;29.60;99.90
56322;DHT22;42227;6.376;-10.782;2022-07-01T12:41:32;29.60;99.90
56322;DHT22;42227;6.376;-10.782;2022-07-01T12:46:55;29.30;99.90
56322;DHT22;42227;6.376;-10.782;2022-07-01T12:49:24;29.50;99.90
56322;DHT22;42227;6.376;-10.782;2022-07-01T12:51:53;29.90;99.90
56322;DHT22;42227;6.376;-10.782;2022-07-01T12:54:32;30.00;99.90
56322;DHT22;42227;6.376;-10.782;2022-07-01T12:57:01;30.10;99.90
56322;DHT22;42227;6.376;-10.782;2022-07-01T12:59:30;30.40;99.90
56322;DHT22;42227;6.376;-10.782;2022-07-01T13:01:58;30.50;99.90
56322;DHT22;42227;6.376;-10.782;2022-07-01T13:04:28;30.40;99.90
56322;DHT22;42227;6.376;-10.782;2022-07-01T13:06:56;30.60;99.90
56322;DHT22;42227;6.376;-10.782;2022-07-01T13:09:24;30.60;99.90
56322;DHT22;42227;6.376;-10.782;2022-07-01T13:11:53;30.50;99.90
56322;DHT22;42227;6.376;-10.782;2022-07-01T13:14:21;30.40;99.90
56322;DHT22;42227;6.376;-10.782;2022-07-01T13:16:50;30.40;99.90
56322;DHT22;42227;6.376;-10.782;2022-07-01T13:19:18;30.50;99.90
56322;DHT22;42227;6.376;-10.782;2022-07-01T13:21:46;30.60;99.90
56322;DHT22;42227;6.376;-10.782;2022-07-01T13:24:15;30.40;99.90
56322;DHT22;42227;6.376;-10.782;2022-07-01T13:27:00;30.90;99.90
56322;DHT22;42227;6.376;-10.782;2022-07-01T13:29:28;31.10;99.90
56322;DHT22;42227;6.376;-10.782;2022-07-01T13:31:57;30.70;99.90
56322;DHT22;42227;6.376;-10.782;2022-07-01T13:34:26;30.20;99.90
56322;DHT22;42227;6.376;-10.782;2022-07-01T13:36:54;29.90;99.90
56322;DHT22;42227;6.376;-10.782;2022-07-01T13:39:23;29.80;99.90
56322;DHT22;42227;6.376;-10.782;2022-07-01T13:41:51;29.70;99.90
56322;DHT22;42227;6.376;-10.782;2022-07-01T13:44:20;29.60;99.90
56322;DHT22;42227;6.376;-10.782;2022-07-01T13:46:48;29.80;99.90
56322;DHT22;42227;6.376;-10.782;2022-07-01T13:49:17;30.00;99.90
56322;DHT22;42227;6.376;-10.782;2022-07-01T13:51:45;30.00;99.90
56322;DHT22;42227;6.376;-10.782;2022-07-01T13:54:14;30.60;99.90
56322;DHT22;42227;6.376;-10.782;2022-07-01T13:56:42;30.80;99.90
56322;DHT22;42227;6.376;-10.782;2022-07-01T13:59:12;31.20;99.90
56322;DHT22;42227;6.376;-10.782;2022-07-01T14:01:40;31.00;99.90
56322;DHT22;42227;6.376;-10.782;2022-07-01T14:04:08;30.70;99.90
56322;DHT22;42227;6.376;-10.782;2022-07-01T14:06:37;30.40;99.90
56322;DHT22;42227;6.376;-10.782;2022-07-01T14:09:05;30.40;99.90
56322;DHT22;42227;6.376;-10.782;2022-07-01T14:11:34;30.50;99.90
56322;DHT22;42227;6.376;-10.782;2022-07-01T14:14:02;30.60;99.90
56322;DHT22;42227;6.376;-10.782;2022-07-01T14:16:31;30.70;99.90
56322;DHT22;42227;6.376;-10.782;2022-07-01T14:19:00;30.70;99.90
56322;DHT22;42227;6.376;-10.782;2022-07-01T14:21:29;30.70;99.90
56322;DHT22;42227;6.376;-10.782;2022-07-01T14:23:57;31.10;99.90
56322;DHT22;42227;6.376;-10.782;2022-07-01T14:26:25;31.40;99.90
56322;DHT22;42227;6.376;-10.782;2022-07-01T14:28:54;31.40;99.90
56322;DHT22;42227;6.376;-10.782;2022-07-01T14:31:22;31.20;99.90
56322;DHT22;42227;6.376;-10.782;2022-07-01T14:33:50;30.80;99.90
56322;DHT22;42227;6.376;-10.782;2022-07-01T14:36:19;30.90;99.90
56322;DHT22;42227;6.376;-10.782;2022-07-01T14:38:47;30.80;99.90
56322;DHT22;42227;6.376;-10.782;2022-07-01T14:41:15;30.80;99.90
56322;DHT22;42227;6.376;-10.782;2022-07-01T14:43:45;30.50;99.90
56322;DHT22;42227;6.376;-10.782;2022-07-01T14:46:13;30.50;99.90
56322;DHT22;42227;6.376;-10.782;2022-07-01T14:48:42;30.60;99.90
56322;DHT22;42227;6.376;-10.782;2022-07-01T14:51:10;30.70;99.90
56322;DHT22;42227;6.376;-10.782;2022-07-01T14:53:39;31.10;99.90
56322;DHT22;42227;6.376;-10.782;2022-07-01T14:56:12;31.40;99.90
56322;DHT22;42227;6.376;-10.782;2022-07-01T14:58:40;31.20;99.90
56322;DHT22;42227;6.376;-10.782;2022-07-01T15:01:09;31.10;99.90
56322;DHT22;42227;6.376;-10.782;2022-07-01T15:03:38;30.90;99.90
56322;DHT22;42227;6.376;-10.782;2022-07-01T15:06:06;30.70;99.90
56322;DHT22;42227;6.376;-10.782;2022-07-01T15:08:35;30.60;99.90
56322;DHT22;42227;6.376;-10.782;2022-07-01T15:11:03;30.60;99.90
56322;DHT22;42227;6.376;-10.782;2022-07-01T15:13:33;30.50;99.90
56322;DHT22;42227;6.376;-10.782;2022-07-01T15:16:01;30.30;99.90
56322;DHT22;42227;6.376;-10.782;2022-07-01T15:18:30;30.70;99.90
56322;DHT22;42227;6.376;-10.782;2022-07-01T15:20:59;30.80;99.90
56322;DHT22;42227;6.376;-10.782;2022-07-01T15:23:28;30.70;99.90
56322;DHT22;42227;6.376;-10.782;2022-07-01T15:25:57;30.40;99.90
56322;DHT22;42227;6.376;-10.782;2022-07-01T15:28:25;30.30;99.90
56322;DHT22;42227;6.376;-10.782;2022-07-01T15:30:53;30.30;99.90
56322;DHT22;42227;6.376;-10.782;2022-07-01T15:33:22;30.40;99.90
56322;DHT22;42227;6.376;-10.782;2022-07-01T15:35:50;30.30;99.90
56322;DHT22;42227;6.376;-10.782;2022-07-01T15:38:18;30.20;99.90
56322;DHT22;42227;6.376;-10.782;2022-07-01T15:40:47;30.10;99.90
56322;DHT22;42227;6.376;-10.782;2022-07-01T15:43:15;30.50;99.90
56322;DHT22;42227;6.376;-10.782;2022-07-01T15:45:43;30.80;99.90
56322;DHT22;42227;6.376;-10.782;2022-07-01T15:48:15;31.20;99.90
56322;DHT22;42227;6.376;-10.782;2022-07-01T15:50:43;30.60;99.90
56322;DHT22;42227;6.376;-10.782;2022-07-01T15:53:12;30.30;99.90
56322;DHT22;42227;6.376;-10.782;2022-07-01T15:55:40;30.00;99.90
56322;DHT22;42227;6.376;-10.782;2022-07-01T15:58:13;29.80;99.90